sensor_id;sensor_type;location;lat;lon;timestamp;P1;durP1;ratioP1;P2;durP2;ratioP2
16401;SDS011;8310;44.626;11.176;2024-02-14T00:01:13;36.13;;;26.88;;
16401;SDS011;8310;44.626;11.176;2024-02-14T00:03:40;38.40;;;27.27;;
16401;SDS011;8310;44.626;11.176;2024-02-14T00:06:08;38.15;;;26.67;;
16401;SDS011;8310;44.626;11.176;2024-02-14T00:08:37;39.20;;;25.60;;
16401;SDS011;8310;44.626;11.176;2024-02-14T00:11:04;32.67;;;23.63;;
16401;SDS011;8310;44.626;11.176;2024-02-14T00:13:31;32.53;;;24.38;;
16401;SDS011;8310;44.626;11.176;2024-02-14T00:16:02;32.63;;;24.63;;
16401;SDS011;8310;44.626;11.176;2024-02-14T00:18:33;33.40;;;24.70;;
16401;SDS011;8310;44.626;11.176;2024-02-14T00:21:01;33.50;;;25.42;;
16401;SDS011;8310;44.626;11.176;2024-02-14T00:23:28;28.63;;;22.25;;
16401;SDS011;8310;44.626;11.176;2024-02-14T00:25:55;29.50;;;22.17;;
16401;SDS011;8310;44.626;11.176;2024-02-14T00:28:23;30.90;;;22.07;;
16401;SDS011;8310;44.626;11.176;2024-02-14T00:30:52;29.95;;;22.65;;
16401;SDS011;8310;44.626;11.176;2024-02-14T00:33:19;30.42;;;22.65;;
16401;SDS011;8310;44.626;11.176;2024-02-14T00:35:48;29.38;;;21.92;;
16401;SDS011;8310;44.626;11.176;2024-02-14T00:38:16;29.02;;;21.73;;
16401;SDS011;8310;44.626;11.176;2024-02-14T00:40:44;28.58;;;21.92;;
16401;SDS011;8310;44.626;11.176;2024-02-14T00:43:12;30.92;;;22.08;;
16401;SDS011;8310;44.626;11.176;2024-02-14T00:45:39;30.02;;;20.95;;
16401;SDS011;8310;44.626;11.176;2024-02-14T00:48:07;28.30;;;21.40;;
16401;SDS011;8310;44.626;11.176;2024-02-14T00:50:35;29.90;;;22.83;;
16401;SDS011;8310;44.626;11.176;2024-02-14T00:53:04;27.13;;;21.23;;
16401;SDS011;8310;44.626;11.176;2024-02-14T00:55:32;29.15;;;21.48;;
16401;SDS011;8310;44.626;11.176;2024-02-14T00:58:00;31.67;;;22.02;;
16401;SDS011;8310;44.626;11.176;2024-02-14T01:00:27;30.33;;;23.00;;
16401;SDS011;8310;44.626;11.176;2024-02-14T01:02:56;31.35;;;22.83;;
16401;SDS011;8310;44.626;11.176;2024-02-14T01:05:24;29.75;;;21.83;;
16401;SDS011;8310;44.626;11.176;2024-02-14T01:07:52;31.08;;;22.30;;
16401;SDS011;8310;44.626;11.176;2024-02-14T01:10:22;33.95;;;22.20;;
16401;SDS011;8310;44.626;11.176;2024-02-14T01:12:49;30.42;;;22.27;;
16401;SDS011;8310;44.626;11.176;2024-02-14T01:15:16;28.40;;;21.70;;
16401;SDS011;8310;44.626;11.176;2024-02-14T01:17:45;29.48;;;21.33;;
16401;SDS011;8310;44.626;11.176;2024-02-14T01:20:12;28.57;;;21.43;;
16401;SDS011;8310;44.626;11.176;2024-02-14T01:22:41;28.75;;;21.83;;
16401;SDS011;8310;44.626;11.176;2024-02-14T01:25:08;28.27;;;20.75;;
16401;SDS011;8310;44.626;11.176;2024-02-14T01:27:39;29.60;;;22.10;;
16401;SDS011;8310;44.626;11.176;2024-02-14T01:30:09;29.17;;;21.50;;
16401;SDS011;8310;44.626;11.176;2024-02-14T01:32:37;29.27;;;22.15;;
16401;SDS011;8310;44.626;11.176;2024-02-14T01:35:05;29.52;;;22.13;;
16401;SDS011;8310;44.626;11.176;2024-02-14T01:37:34;31.03;;;22.03;;
16401;SDS011;8310;44.626;11.176;2024-02-14T01:40:02;30.27;;;22.27;;
16401;SDS011;8310;44.626;11.176;2024-02-14T01:42:32;27.53;;;20.50;;
16401;SDS011;8310;44.626;11.176;2024-02-14T01:45:01;30.60;;;21.60;;
16401;SDS011;8310;44.626;11.176;2024-02-14T01:47:30;28.37;;;21.17;;
16401;SDS011;8310;44.626;11.176;2024-02-14T01:49:58;27.37;;;21.20;;
16401;SDS011;8310;44.626;11.176;2024-02-14T01:52:26;28.05;;;21.58;;
16401;SDS011;8310;44.626;11.176;2024-02-14T01:54:53;28.63;;;20.40;;
16401;SDS011;8310;44.626;11.176;2024-02-14T01:57:22;29.33;;;21.13;;
16401;SDS011;8310;44.626;11.176;2024-02-14T01:59:51;29.83;;;20.45;;
16401;SDS011;8310;44.626;11.176;2024-02-14T02:02:22;29.15;;;21.83;;
16401;SDS011;8310;44.626;11.176;2024-02-14T02:04:51;29.92;;;22.63;;
16401;SDS011;8310;44.626;11.176;2024-02-14T02:07:19;31.63;;;22.92;;
16401;SDS011;8310;44.626;11.176;2024-02-14T02:09:47;33.38;;;23.60;;
16401;SDS011;8310;44.626;11.176;2024-02-14T02:12:14;30.88;;;22.50;;
16401;SDS011;8310;44.626;11.176;2024-02-14T02:14:42;33.28;;;24.33;;
16401;SDS011;8310;44.626;11.176;2024-02-14T02:17:10;35.20;;;24.88;;
16401;SDS011;8310;44.626;11.176;2024-02-14T02:19:41;32.75;;;23.48;;
16401;SDS011;8310;44.626;11.176;2024-02-14T02:22:08;34.20;;;23.98;;
16401;SDS011;8310;44.626;11.176;2024-02-14T02:24:37;35.13;;;21.65;;
16401;SDS011;8310;44.626;11.176;2024-02-14T02:27:04;29.42;;;22.13;;
16401;SDS011;8310;44.626;11.176;2024-02-14T02:29:32;31.27;;;22.45;;
16401;SDS011;8310;44.626;11.176;2024-02-14T02:32:00;30.50;;;22.85;;
16401;SDS011;8310;44.626;11.176;2024-02-14T02:34:28;31.02;;;22.88;;
16401;SDS011;8310;44.626;11.176;2024-02-14T02:36:56;32.90;;;23.85;;
16401;SDS011;8310;44.626;11.176;2024-02-14T02:39:23;31.50;;;22.43;;
16401;SDS011;8310;44.626;11.176;2024-02-14T02:41:52;37.20;;;25.02;;
16401;SDS011;8310;44.626;11.176;2024-02-14T02:44:22;32.03;;;22.63;;
16401;SDS011;8310;44.626;11.176;2024-02-14T02:46:50;34.15;;;22.63;;
16401;SDS011;8310;44.626;11.176;2024-02-14T02:49:17;28.52;;;22.00;;
16401;SDS011;8310;44.626;11.176;2024-02-14T02:51:46;33.27;;;23.13;;
16401;SDS011;8310;44.626;11.176;2024-02-14T02:54:14;27.77;;;20.33;;
16401;SDS011;8310;44.626;11.176;2024-02-14T02:56:41;27.17;;;19.70;;
16401;SDS011;8310;44.626;11.176;2024-02-14T02:59:11;27.25;;;19.67;;
16401;SDS011;8310;44.626;11.176;2024-02-14T03:01:38;29.52;;;20.90;;
16401;SDS011;8310;44.626;11.176;2024-02-14T03:04:06;27.92;;;19.50;;
16401;SDS011;8310;44.626;11.176;2024-02-14T03:06:33;25.92;;;19.48;;
16401;SDS011;8310;44.626;11.176;2024-02-14T03:09:02;28.23;;;19.33;;
16401;SDS011;8310;44.626;11.176;2024-02-14T03:11:31;27.50;;;18.92;;
16401;SDS011;8310;44.626;11.176;2024-02-14T03:13:58;27.10;;;18.65;;
16401;SDS011;8310;44.626;11.176;2024-02-14T03:16:27;28.02;;;20.10;;
16401;SDS011;8310;44.626;11.176;2024-02-14T03:18:54;25.73;;;19.13;;
16401;SDS011;8310;44.626;11.176;2024-02-14T03:21:22;27.95;;;20.15;;
16401;SDS011;8310;44.626;11.176;2024-02-14T03:23:50;28.92;;;20.80;;
16401;SDS011;8310;44.626;11.176;2024-02-14T03:26:19;29.63;;;20.90;;
16401;SDS011;8310;44.626;11.176;2024-02-14T03:28:47;30.00;;;21.10;;
16401;SDS011;8310;44.626;11.176;2024-02-14T03:31:15;28.90;;;20.63;;
16401;SDS011;8310;44.626;11.176;2024-02-14T03:33:44;27.67;;;19.40;;
16401;SDS011;8310;44.626;11.176;2024-02-14T03:36:12;26.67;;;19.35;;
16401;SDS011;8310;44.626;11.176;2024-02-14T03:38:40;27.65;;;20.70;;
16401;SDS011;8310;44.626;11.176;2024-02-14T03:41:07;27.23;;;21.07;;
16401;SDS011;8310;44.626;11.176;2024-02-14T03:43:35;26.90;;;19.10;;
16401;SDS011;8310;44.626;11.176;2024-02-14T03:46:03;26.37;;;19.50;;
16401;SDS011;8310;44.626;11.176;2024-02-14T03:48:30;26.13;;;18.97;;
16401;SDS011;8310;44.626;11.176;2024-02-14T03:51:00;26.63;;;18.90;;
16401;SDS011;8310;44.626;11.176;2024-02-14T03:53:28;24.80;;;18.83;;
16401;SDS011;8310;44.626;11.176;2024-02-14T03:55:56;24.17;;;17.05;;
16401;SDS011;8310;44.626;11.176;2024-02-14T03:58:24;19.60;;;15.77;;
16401;SDS011;8310;44.626;11.176;2024-02-14T04:00:52;24.35;;;17.38;;
16401;SDS011;8310;44.626;11.176;2024-02-14T04:03:20;23.98;;;17.40;;
16401;SDS011;8310;44.626;11.176;2024-02-14T04:05:47;24.20;;;18.02;;
16401;SDS011;8310;44.626;11.176;2024-02-14T04:08:16;24.95;;;17.05;;
16401;SDS011;8310;44.626;11.176;2024-02-14T04:10:44;28.17;;;18.52;;
16401;SDS011;8310;44.626;11.176;2024-02-14T04:13:13;26.17;;;19.00;;
16401;SDS011;8310;44.626;11.176;2024-02-14T04:15:41;27.25;;;19.92;;
16401;SDS011;8310;44.626;11.176;2024-02-14T04:18:09;27.70;;;19.85;;
16401;SDS011;8310;44.626;11.176;2024-02-14T04:20:37;28.15;;;19.90;;
16401;SDS011;8310;44.626;11.176;2024-02-14T04:23:06;31.15;;;22.23;;
16401;SDS011;8310;44.626;11.176;2024-02-14T04:25:35;29.77;;;21.92;;
16401;SDS011;8310;44.626;11.176;2024-02-14T04:28:04;30.93;;;22.23;;
16401;SDS011;8310;44.626;11.176;2024-02-14T04:30:31;28.83;;;20.80;;
16401;SDS011;8310;44.626;11.176;2024-02-14T04:32:58;32.95;;;21.80;;
16401;SDS011;8310;44.626;11.176;2024-02-14T04:35:26;32.30;;;21.98;;
16401;SDS011;8310;44.626;11.176;2024-02-14T04:37:54;31.87;;;22.07;;
16401;SDS011;8310;44.626;11.176;2024-02-14T04:40:22;27.63;;;20.40;;
16401;SDS011;8310;44.626;11.176;2024-02-14T04:42:51;30.58;;;20.80;;
16401;SDS011;8310;44.626;11.176;2024-02-14T04:45:19;29.08;;;20.45;;
16401;SDS011;8310;44.626;11.176;2024-02-14T04:47:47;28.70;;;20.63;;
16401;SDS011;8310;44.626;11.176;2024-02-14T04:50:14;27.63;;;20.15;;
16401;SDS011;8310;44.626;11.176;2024-02-14T04:52:44;28.85;;;20.40;;
16401;SDS011;8310;44.626;11.176;2024-02-14T04:55:11;26.98;;;19.10;;
16401;SDS011;8310;44.626;11.176;2024-02-14T04:57:40;30.80;;;21.70;;
16401;SDS011;8310;44.626;11.176;2024-02-14T05:00:10;28.73;;;20.98;;
16401;SDS011;8310;44.626;11.176;2024-02-14T05:02:38;29.13;;;21.58;;
16401;SDS011;8310;44.626;11.176;2024-02-14T05:05:13;32.25;;;23.13;;
16401;SDS011;8310;44.626;11.176;2024-02-14T05:07:40;34.78;;;22.00;;
16401;SDS011;8310;44.626;11.176;2024-02-14T05:10:08;34.22;;;23.00;;
16401;SDS011;8310;44.626;11.176;2024-02-14T05:12:36;31.63;;;22.25;;
16401;SDS011;8310;44.626;11.176;2024-02-14T05:15:04;33.35;;;22.85;;
16401;SDS011;8310;44.626;11.176;2024-02-14T05:17:34;30.52;;;22.40;;
16401;SDS011;8310;44.626;11.176;2024-02-14T05:20:02;31.23;;;21.45;;
16401;SDS011;8310;44.626;11.176;2024-02-14T05:22:34;29.90;;;21.23;;
16401;SDS011;8310;44.626;11.176;2024-02-14T05:25:02;28.58;;;20.08;;
16401;SDS011;8310;44.626;11.176;2024-02-14T05:27:30;29.90;;;21.08;;
16401;SDS011;8310;44.626;11.176;2024-02-14T05:29:57;29.10;;;20.23;;
16401;SDS011;8310;44.626;11.176;2024-02-14T05:32:25;31.23;;;21.48;;
16401;SDS011;8310;44.626;11.176;2024-02-14T05:34:55;32.20;;;22.23;;
16401;SDS011;8310;44.626;11.176;2024-02-14T05:37:22;28.55;;;20.73;;
16401;SDS011;8310;44.626;11.176;2024-02-14T05:39:52;29.27;;;20.23;;
16401;SDS011;8310;44.626;11.176;2024-02-14T05:42:20;30.10;;;21.13;;
16401;SDS011;8310;44.626;11.176;2024-02-14T05:44:48;28.50;;;20.45;;
16401;SDS011;8310;44.626;11.176;2024-02-14T05:47:17;30.17;;;21.80;;
16401;SDS011;8310;44.626;11.176;2024-02-14T05:49:44;29.23;;;19.98;;
16401;SDS011;8310;44.626;11.176;2024-02-14T05:52:13;32.85;;;21.95;;
16401;SDS011;8310;44.626;11.176;2024-02-14T05:54:41;30.87;;;20.87;;
16401;SDS011;8310;44.626;11.176;2024-02-14T05:57:09;28.92;;;20.77;;
16401;SDS011;8310;44.626;11.176;2024-02-14T05:59:36;31.65;;;21.90;;
16401;SDS011;8310;44.626;11.176;2024-02-14T06:02:04;34.45;;;22.05;;
16401;SDS011;8310;44.626;11.176;2024-02-14T06:04:33;35.00;;;22.83;;
16401;SDS011;8310;44.626;11.176;2024-02-14T06:07:01;32.53;;;22.58;;
16401;SDS011;8310;44.626;11.176;2024-02-14T06:09:32;31.50;;;22.58;;
16401;SDS011;8310;44.626;11.176;2024-02-14T06:12:00;28.10;;;20.73;;
16401;SDS011;8310;44.626;11.176;2024-02-14T06:14:27;33.50;;;21.53;;
16401;SDS011;8310;44.626;11.176;2024-02-14T06:16:56;29.65;;;21.08;;
16401;SDS011;8310;44.626;11.176;2024-02-14T06:19:24;31.73;;;21.25;;
16401;SDS011;8310;44.626;11.176;2024-02-14T06:21:51;31.40;;;20.88;;
16401;SDS011;8310;44.626;11.176;2024-02-14T06:24:19;27.95;;;21.25;;
16401;SDS011;8310;44.626;11.176;2024-02-14T06:26:49;27.77;;;20.55;;
16401;SDS011;8310;44.626;11.176;2024-02-14T06:29:17;28.77;;;21.02;;
16401;SDS011;8310;44.626;11.176;2024-02-14T06:31:45;28.65;;;20.65;;
16401;SDS011;8310;44.626;11.176;2024-02-14T06:34:13;33.63;;;22.10;;
16401;SDS011;8310;44.626;11.176;2024-02-14T06:36:40;29.17;;;21.00;;
16401;SDS011;8310;44.626;11.176;2024-02-14T06:39:07;30.20;;;21.13;;
16401;SDS011;8310;44.626;11.176;2024-02-14T06:41:35;32.40;;;21.27;;
16401;SDS011;8310;44.626;11.176;2024-02-14T06:44:05;37.23;;;21.87;;
16401;SDS011;8310;44.626;11.176;2024-02-14T06:46:33;31.77;;;20.63;;
16401;SDS011;8310;44.626;11.176;2024-02-14T06:49:03;32.30;;;20.35;;
16401;SDS011;8310;44.626;11.176;2024-02-14T06:51:30;32.97;;;20.70;;
16401;SDS011;8310;44.626;11.176;2024-02-14T06:53:58;33.80;;;20.38;;
16401;SDS011;8310;44.626;11.176;2024-02-14T06:56:29;29.90;;;20.50;;
16401;SDS011;8310;44.626;11.176;2024-02-14T06:58:58;33.35;;;23.48;;
16401;SDS011;8310;44.626;11.176;2024-02-14T07:01:29;31.73;;;21.92;;
16401;SDS011;8310;44.626;11.176;2024-02-14T07:03:57;32.78;;;21.95;;
16401;SDS011;8310;44.626;11.176;2024-02-14T07:06:26;31.77;;;22.13;;
16401;SDS011;8310;44.626;11.176;2024-02-14T07:08:54;32.30;;;21.30;;
16401;SDS011;8310;44.626;11.176;2024-02-14T07:11:22;36.40;;;22.23;;
16401;SDS011;8310;44.626;11.176;2024-02-14T07:13:51;30.33;;;20.30;;
16401;SDS011;8310;44.626;11.176;2024-02-14T07:16:18;40.07;;;20.90;;
16401;SDS011;8310;44.626;11.176;2024-02-14T07:18:47;31.80;;;20.77;;
16401;SDS011;8310;44.626;11.176;2024-02-14T07:21:16;31.83;;;19.88;;
16401;SDS011;8310;44.626;11.176;2024-02-14T07:23:43;30.77;;;19.50;;
16401;SDS011;8310;44.626;11.176;2024-02-14T07:26:11;36.03;;;20.20;;
16401;SDS011;8310;44.626;11.176;2024-02-14T07:28:38;30.55;;;20.38;;
16401;SDS011;8310;44.626;11.176;2024-02-14T07:31:06;30.88;;;19.75;;
16401;SDS011;8310;44.626;11.176;2024-02-14T07:33:34;32.10;;;21.13;;
16401;SDS011;8310;44.626;11.176;2024-02-14T07:36:03;31.70;;;21.63;;
16401;SDS011;8310;44.626;11.176;2024-02-14T07:38:32;30.27;;;19.55;;
16401;SDS011;8310;44.626;11.176;2024-02-14T07:40:59;27.67;;;19.45;;
16401;SDS011;8310;44.626;11.176;2024-02-14T07:43:27;25.73;;;18.93;;
16401;SDS011;8310;44.626;11.176;2024-02-14T07:45:55;26.83;;;18.25;;
16401;SDS011;8310;44.626;11.176;2024-02-14T07:48:23;24.52;;;17.63;;
16401;SDS011;8310;44.626;11.176;2024-02-14T07:50:50;26.08;;;16.58;;
16401;SDS011;8310;44.626;11.176;2024-02-14T07:53:20;26.55;;;17.08;;
16401;SDS011;8310;44.626;11.176;2024-02-14T07:55:47;23.37;;;15.50;;
16401;SDS011;8310;44.626;11.176;2024-02-14T07:58:15;19.40;;;14.50;;
16401;SDS011;8310;44.626;11.176;2024-02-14T08:00:43;19.80;;;13.77;;
16401;SDS011;8310;44.626;11.176;2024-02-14T08:03:10;18.93;;;12.27;;
16401;SDS011;8310;44.626;11.176;2024-02-14T08:05:38;17.23;;;12.57;;
16401;SDS011;8310;44.626;11.176;2024-02-14T08:08:06;17.30;;;12.10;;
16401;SDS011;8310;44.626;11.176;2024-02-14T08:10:35;16.83;;;12.80;;
16401;SDS011;8310;44.626;11.176;2024-02-14T08:13:06;16.57;;;11.97;;
16401;SDS011;8310;44.626;11.176;2024-02-14T08:15:34;14.73;;;10.63;;
16401;SDS011;8310;44.626;11.176;2024-02-14T08:18:02;15.73;;;11.35;;
16401;SDS011;8310;44.626;11.176;2024-02-14T08:20:30;15.80;;;10.43;;
16401;SDS011;8310;44.626;11.176;2024-02-14T08:22:57;12.48;;;9.85;;
16401;SDS011;8310;44.626;11.176;2024-02-14T08:25:24;13.48;;;10.50;;
16401;SDS011;8310;44.626;11.176;2024-02-14T08:27:54;14.60;;;10.80;;
16401;SDS011;8310;44.626;11.176;2024-02-14T08:30:23;16.53;;;10.37;;
16401;SDS011;8310;44.626;11.176;2024-02-14T08:32:50;15.23;;;10.82;;
16401;SDS011;8310;44.626;11.176;2024-02-14T08:35:18;24.35;;;11.18;;
16401;SDS011;8310;44.626;11.176;2024-02-14T08:37:46;18.80;;;11.63;;
16401;SDS011;8310;44.626;11.176;2024-02-14T08:40:14;19.27;;;13.52;;
16401;SDS011;8310;44.626;11.176;2024-02-14T08:42:43;19.85;;;13.15;;
16401;SDS011;8310;44.626;11.176;2024-02-14T08:45:12;19.15;;;13.95;;
16401;SDS011;8310;44.626;11.176;2024-02-14T08:47:43;21.73;;;13.52;;
16401;SDS011;8310;44.626;11.176;2024-02-14T08:50:11;20.03;;;13.10;;
16401;SDS011;8310;44.626;11.176;2024-02-14T08:52:38;18.98;;;14.75;;
16401;SDS011;8310;44.626;11.176;2024-02-14T08:55:06;22.92;;;15.13;;
16401;SDS011;8310;44.626;11.176;2024-02-14T08:57:40;20.17;;;14.82;;
16401;SDS011;8310;44.626;11.176;2024-02-14T09:00:08;22.88;;;15.30;;
16401;SDS011;8310;44.626;11.176;2024-02-14T09:02:41;20.83;;;14.10;;
16401;SDS011;8310;44.626;11.176;2024-02-14T09:05:09;19.13;;;14.70;;
16401;SDS011;8310;44.626;11.176;2024-02-14T09:07:37;19.00;;;13.40;;
16401;SDS011;8310;44.626;11.176;2024-02-14T09:10:04;25.47;;;13.80;;
16401;SDS011;8310;44.626;11.176;2024-02-14T09:12:32;20.35;;;14.13;;
16401;SDS011;8310;44.626;11.176;2024-02-14T09:15:00;18.85;;;13.23;;
16401;SDS011;8310;44.626;11.176;2024-02-14T09:17:29;23.15;;;14.25;;
16401;SDS011;8310;44.626;11.176;2024-02-14T09:19:59;20.67;;;15.10;;
16401;SDS011;8310;44.626;11.176;2024-02-14T09:22:26;48.10;;;15.63;;
16401;SDS011;8310;44.626;11.176;2024-02-14T09:24:54;21.67;;;14.20;;
16401;SDS011;8310;44.626;11.176;2024-02-14T09:27:22;18.63;;;13.80;;
16401;SDS011;8310;44.626;11.176;2024-02-14T09:29:51;20.02;;;13.88;;
16401;SDS011;8310;44.626;11.176;2024-02-14T09:32:18;19.60;;;13.97;;
16401;SDS011;8310;44.626;11.176;2024-02-14T09:34:46;17.80;;;12.52;;
16401;SDS011;8310;44.626;11.176;2024-02-14T09:37:16;18.80;;;12.85;;
16401;SDS011;8310;44.626;11.176;2024-02-14T09:39:44;19.40;;;12.70;;
16401;SDS011;8310;44.626;11.176;2024-02-14T09:42:13;17.95;;;13.60;;
16401;SDS011;8310;44.626;11.176;2024-02-14T09:44:43;18.45;;;12.70;;
16401;SDS011;8310;44.626;11.176;2024-02-14T09:47:12;20.20;;;13.73;;
16401;SDS011;8310;44.626;11.176;2024-02-14T09:49:42;22.23;;;14.02;;
16401;SDS011;8310;44.626;11.176;2024-02-14T09:52:10;19.92;;;13.38;;
16401;SDS011;8310;44.626;11.176;2024-02-14T09:54:41;19.27;;;13.90;;
16401;SDS011;8310;44.626;11.176;2024-02-14T09:57:08;20.65;;;14.05;;
16401;SDS011;8310;44.626;11.176;2024-02-14T09:59:37;18.42;;;14.13;;
16401;SDS011;8310;44.626;11.176;2024-02-14T10:02:05;21.23;;;14.63;;
16401;SDS011;8310;44.626;11.176;2024-02-14T10:04:33;21.45;;;14.50;;
16401;SDS011;8310;44.626;11.176;2024-02-14T10:07:01;21.95;;;14.60;;
16401;SDS011;8310;44.626;11.176;2024-02-14T10:09:28;18.73;;;13.93;;
16401;SDS011;8310;44.626;11.176;2024-02-14T10:11:57;18.53;;;14.07;;
16401;SDS011;8310;44.626;11.176;2024-02-14T10:14:27;21.23;;;14.93;;
16401;SDS011;8310;44.626;11.176;2024-02-14T10:16:55;20.03;;;14.57;;
16401;SDS011;8310;44.626;11.176;2024-02-14T10:19:23;21.67;;;15.17;;
16401;SDS011;8310;44.626;11.176;2024-02-14T10:21:57;19.48;;;14.15;;
16401;SDS011;8310;44.626;11.176;2024-02-14T10:24:25;24.85;;;14.82;;
16401;SDS011;8310;44.626;11.176;2024-02-14T10:26:52;23.13;;;14.50;;
16401;SDS011;8310;44.626;11.176;2024-02-14T10:29:24;19.85;;;15.43;;
16401;SDS011;8310;44.626;11.176;2024-02-14T10:31:52;22.10;;;15.88;;
16401;SDS011;8310;44.626;11.176;2024-02-14T10:34:23;22.85;;;14.40;;
16401;SDS011;8310;44.626;11.176;2024-02-14T10:36:56;21.73;;;14.48;;
16401;SDS011;8310;44.626;11.176;2024-02-14T10:39:25;22.52;;;15.32;;
16401;SDS011;8310;44.626;11.176;2024-02-14T10:41:53;22.13;;;15.63;;
16401;SDS011;8310;44.626;11.176;2024-02-14T10:44:21;23.63;;;15.90;;
16401;SDS011;8310;44.626;11.176;2024-02-14T10:46:51;21.52;;;15.40;;
16401;SDS011;8310;44.626;11.176;2024-02-14T10:49:22;21.37;;;15.47;;
16401;SDS011;8310;44.626;11.176;2024-02-14T10:51:54;23.75;;;17.20;;
16401;SDS011;8310;44.626;11.176;2024-02-14T10:54:25;26.53;;;17.10;;
16401;SDS011;8310;44.626;11.176;2024-02-14T10:56:54;25.92;;;17.25;;
16401;SDS011;8310;44.626;11.176;2024-02-14T10:59:31;25.33;;;16.57;;
16401;SDS011;8310;44.626;11.176;2024-02-14T11:02:01;26.25;;;17.55;;
16401;SDS011;8310;44.626;11.176;2024-02-14T11:04:29;26.95;;;18.63;;
16401;SDS011;8310;44.626;11.176;2024-02-14T11:06:58;23.53;;;17.43;;
16401;SDS011;8310;44.626;11.176;2024-02-14T11:09:31;27.88;;;17.13;;
16401;SDS011;8310;44.626;11.176;2024-02-14T11:12:00;25.13;;;16.30;;
16401;SDS011;8310;44.626;11.176;2024-02-14T11:14:29;21.98;;;15.48;;
16401;SDS011;8310;44.626;11.176;2024-02-14T11:16:59;22.27;;;15.20;;
16401;SDS011;8310;44.626;11.176;2024-02-14T11:19:31;21.30;;;14.55;;
16401;SDS011;8310;44.626;11.176;2024-02-14T11:22:09;21.45;;;14.80;;
16401;SDS011;8310;44.626;11.176;2024-02-14T11:24:38;20.58;;;14.13;;
16401;SDS011;8310;44.626;11.176;2024-02-14T11:27:09;21.95;;;15.10;;
16401;SDS011;8310;44.626;11.176;2024-02-14T11:29:38;21.55;;;14.27;;
16401;SDS011;8310;44.626;11.176;2024-02-14T11:32:11;21.25;;;14.88;;
16401;SDS011;8310;44.626;11.176;2024-02-14T11:34:38;22.52;;;15.68;;
16401;SDS011;8310;44.626;11.176;2024-02-14T11:37:06;23.08;;;15.57;;
16401;SDS011;8310;44.626;11.176;2024-02-14T11:39:35;24.77;;;16.65;;
16401;SDS011;8310;44.626;11.176;2024-02-14T11:42:03;25.37;;;15.20;;
16401;SDS011;8310;44.626;11.176;2024-02-14T11:44:31;20.52;;;15.38;;
16401;SDS011;8310;44.626;11.176;2024-02-14T11:46:58;23.45;;;15.80;;
16401;SDS011;8310;44.626;11.176;2024-02-14T11:49:28;26.73;;;17.77;;
16401;SDS011;8310;44.626;11.176;2024-02-14T11:51:56;25.30;;;17.43;;
16401;SDS011;8310;44.626;11.176;2024-02-14T11:54:24;23.23;;;16.13;;
16401;SDS011;8310;44.626;11.176;2024-02-14T11:56:51;24.70;;;17.63;;
16401;SDS011;8310;44.626;11.176;2024-02-14T11:59:19;27.55;;;18.38;;
16401;SDS011;8310;44.626;11.176;2024-02-14T12:01:48;24.55;;;18.67;;
16401;SDS011;8310;44.626;11.176;2024-02-14T12:04:20;26.65;;;18.40;;
16401;SDS011;8310;44.626;11.176;2024-02-14T12:06:49;25.02;;;16.88;;
16401;SDS011;8310;44.626;11.176;2024-02-14T12:09:17;26.08;;;16.88;;
16401;SDS011;8310;44.626;11.176;2024-02-14T12:11:46;24.37;;;17.00;;
16401;SDS011;8310;44.626;11.176;2024-02-14T12:14:14;26.40;;;17.20;;
16401;SDS011;8310;44.626;11.176;2024-02-14T12:16:44;22.17;;;16.63;;
16401;SDS011;8310;44.626;11.176;2024-02-14T12:19:15;24.48;;;15.75;;
16401;SDS011;8310;44.626;11.176;2024-02-14T12:21:44;21.52;;;15.50;;
16401;SDS011;8310;44.626;11.176;2024-02-14T12:24:15;22.13;;;16.17;;
16401;SDS011;8310;44.626;11.176;2024-02-14T12:26:44;22.33;;;16.20;;
16401;SDS011;8310;44.626;11.176;2024-02-14T12:29:13;20.15;;;15.43;;
16401;SDS011;8310;44.626;11.176;2024-02-14T12:31:41;22.98;;;14.25;;
16401;SDS011;8310;44.626;11.176;2024-02-14T12:34:10;20.13;;;14.50;;
16401;SDS011;8310;44.626;11.176;2024-02-14T12:36:38;21.35;;;15.15;;
16401;SDS011;8310;44.626;11.176;2024-02-14T12:39:06;20.08;;;15.07;;
16401;SDS011;8310;44.626;11.176;2024-02-14T12:41:36;20.45;;;14.27;;
16401;SDS011;8310;44.626;11.176;2024-02-14T12:44:05;17.52;;;13.25;;
16401;SDS011;8310;44.626;11.176;2024-02-14T12:46:33;17.80;;;11.50;;
16401;SDS011;8310;44.626;11.176;2024-02-14T12:49:03;18.20;;;12.45;;
16401;SDS011;8310;44.626;11.176;2024-02-14T12:51:30;16.00;;;11.53;;
16401;SDS011;8310;44.626;11.176;2024-02-14T12:54:03;13.83;;;10.87;;
16401;SDS011;8310;44.626;11.176;2024-02-14T12:56:32;16.25;;;11.13;;
16401;SDS011;8310;44.626;11.176;2024-02-14T12:59:01;14.63;;;10.65;;
16401;SDS011;8310;44.626;11.176;2024-02-14T13:01:29;15.32;;;11.07;;
16401;SDS011;8310;44.626;11.176;2024-02-14T13:03:56;17.38;;;11.45;;
16401;SDS011;8310;44.626;11.176;2024-02-14T13:06:24;14.32;;;11.00;;
16401;SDS011;8310;44.626;11.176;2024-02-14T13:08:52;14.65;;;11.65;;
16401;SDS011;8310;44.626;11.176;2024-02-14T13:11:20;15.07;;;11.23;;
16401;SDS011;8310;44.626;11.176;2024-02-14T13:13:49;17.27;;;10.95;;
16401;SDS011;8310;44.626;11.176;2024-02-14T13:16:18;16.43;;;11.93;;
16401;SDS011;8310;44.626;11.176;2024-02-14T13:18:49;17.70;;;11.93;;
16401;SDS011;8310;44.626;11.176;2024-02-14T13:21:18;19.08;;;12.50;;
16401;SDS011;8310;44.626;11.176;2024-02-14T13:23:45;15.85;;;11.45;;
16401;SDS011;8310;44.626;11.176;2024-02-14T13:26:13;21.20;;;12.32;;
16401;SDS011;8310;44.626;11.176;2024-02-14T13:28:41;19.38;;;13.27;;
16401;SDS011;8310;44.626;11.176;2024-02-14T13:31:08;19.33;;;13.30;;
16401;SDS011;8310;44.626;11.176;2024-02-14T13:33:38;20.45;;;14.82;;
16401;SDS011;8310;44.626;11.176;2024-02-14T13:36:06;19.83;;;14.45;;
16401;SDS011;8310;44.626;11.176;2024-02-14T13:38:33;20.42;;;14.18;;
16401;SDS011;8310;44.626;11.176;2024-02-14T13:41:01;19.77;;;13.90;;
16401;SDS011;8310;44.626;11.176;2024-02-14T13:43:29;18.95;;;14.32;;
16401;SDS011;8310;44.626;11.176;2024-02-14T13:45:56;21.88;;;14.55;;
16401;SDS011;8310;44.626;11.176;2024-02-14T13:48:25;20.97;;;14.10;;
16401;SDS011;8310;44.626;11.176;2024-02-14T13:50:54;22.57;;;13.97;;
16401;SDS011;8310;44.626;11.176;2024-02-14T13:53:22;22.73;;;14.27;;
16401;SDS011;8310;44.626;11.176;2024-02-14T13:55:49;17.27;;;12.18;;
16401;SDS011;8310;44.626;11.176;2024-02-14T13:58:17;89.75;;;15.68;;
16401;SDS011;8310;44.626;11.176;2024-02-14T14:00:45;20.38;;;13.73;;
16401;SDS011;8310;44.626;11.176;2024-02-14T14:03:12;21.73;;;14.40;;
16401;SDS011;8310;44.626;11.176;2024-02-14T14:05:40;21.03;;;14.37;;
16401;SDS011;8310;44.626;11.176;2024-02-14T14:08:10;22.10;;;13.85;;
16401;SDS011;8310;44.626;11.176;2024-02-14T14:10:38;21.20;;;13.63;;
16401;SDS011;8310;44.626;11.176;2024-02-14T14:13:07;19.23;;;13.00;;
16401;SDS011;8310;44.626;11.176;2024-02-14T14:15:34;19.15;;;12.43;;
16401;SDS011;8310;44.626;11.176;2024-02-14T14:18:02;17.33;;;11.98;;
16401;SDS011;8310;44.626;11.176;2024-02-14T14:20:29;17.90;;;11.20;;
16401;SDS011;8310;44.626;11.176;2024-02-14T14:22:57;16.20;;;10.60;;
16401;SDS011;8310;44.626;11.176;2024-02-14T14:25:30;24.25;;;11.85;;
16401;SDS011;8310;44.626;11.176;2024-02-14T14:27:57;18.52;;;11.85;;